Time;durP1;ratioP1;P1;durP2;ratioP2;P2;SDS_P1;SDS_P2;PMS_P1;PMS_P2;Temp;Humidity;BMP_temperature;BMP_pressure;BME280_temperature;BME280_humidity;BME280_pressure;Samples;Min_cycle;Max_cycle;Signal;HPM_P1;HPM_P2
2024/01/15 00:02:18;;;;;;;9.00;2.25;;;0.70;99.90;;;;;;4943146;28;20494;-54
2024/01/15 00:04:44;;;;;;;5.78;3.15;;;0.60;99.90;;;;;;4912392;28;20026;-52
2024/01/15 00:07:10;;;;;;;4.72;1.33;;;0.60;99.90;;;;;;4908965;28;20065;-54
2024/01/15 00:09:35;;;;;;;5.85;1.25;;;0.60;99.90;;;;;;4953834;28;20081;-52
2024/01/15 00:12:01;;;;;;;9.23;1.90;;;0.70;99.90;;;;;;4916281;28;20398;-52
2024/01/15 00:14:28;;;;;;;8.38;1.38;;;0.70;99.90;;;;;;4941719;28;20496;-53
2024/01/15 00:16:54;;;;;;;5.55;1.80;;;0.70;99.90;;;;;;4918248;28;20038;-52
2024/01/15 00:19:21;;;;;;;5.05;1.58;;;0.70;99.90;;;;;;4913077;28;20036;-54
2024/01/15 00:21:47;;;;;;;7.85;1.27;;;0.70;99.90;;;;;;4950191;28;20109;-51
2024/01/15 00:24:12;;;;;;;7.53;1.63;;;0.70;99.90;;;;;;4915953;28;20639;-53
2024/01/15 00:26:38;;;;;;;8.77;1.45;;;0.80;99.90;;;;;;4918585;28;20037;-52
2024/01/15 00:29:04;;;;;;;3.53;1.65;;;0.80;99.90;;;;;;4941462;28;20057;-54
2024/01/15 00:31:29;;;;;;;9.63;1.98;;;0.80;99.90;;;;;;4909987;28;20508;-56
2024/01/15 00:33:56;;;;;;;5.22;1.42;;;0.80;99.90;;;;;;4956262;28;20100;-50
2024/01/15 00:36:21;;;;;;;7.90;1.55;;;0.80;99.90;;;;;;4920400;28;20079;-53
2024/01/15 00:38:47;;;;;;;4.10;1.90;;;0.80;99.90;;;;;;4925436;28;20113;-51
2024/01/15 00:41:13;;;;;;;4.90;1.50;;;0.80;99.90;;;;;;4937542;28;20715;-51
2024/01/15 00:43:39;;;;;;;2.70;1.30;;;0.80;99.90;;;;;;4906651;28;20022;-53
2024/01/15 00:46:05;;;;;;;1.90;1.48;;;0.80;99.90;;;;;;4908806;28;20049;-60
2024/01/15 00:48:31;;;;;;;2.67;1.20;;;0.80;99.90;;;;;;4955503;28;20713;-51
2024/01/15 00:50:57;;;;;;;6.63;1.92;;;0.80;99.90;;;;;;4910591;28;20022;-54
2024/01/15 00:53:22;;;;;;;7.05;1.67;;;0.80;99.90;;;;;;4931985;28;20518;-53
2024/01/15 00:55:48;;;;;;;4.82;1.90;;;0.80;99.90;;;;;;4909953;28;20034;-54
2024/01/15 00:58:14;;;;;;;5.57;1.70;;;0.90;99.90;;;;;;4903328;28;20030;-55
2024/01/15 01:00:40;;;;;;;8.13;2.22;;;0.80;99.90;;;;;;4951728;28;20034;-53
2024/01/15 01:03:06;;;;;;;9.45;2.47;;;0.90;99.90;;;;;;4910957;28;20018;-54
2024/01/15 01:05:33;;;;;;;9.02;2.13;;;0.90;99.90;;;;;;4914961;28;20677;-60
2024/01/15 01:07:58;;;;;;;4.65;1.98;;;0.90;99.90;;;;;;4923764;28;20027;-52
2024/01/15 01:10:24;;;;;;;5.93;1.30;;;0.90;99.90;;;;;;4902803;28;21885;-52
2024/01/15 01:12:49;;;;;;;7.82;2.00;;;0.90;99.90;;;;;;4939801;28;20038;-52
2024/01/15 01:15:15;;;;;;;7.47;2.15;;;0.90;99.90;;;;;;4905981;28;20158;-54
2024/01/15 01:17:40;;;;;;;8.35;1.90;;;0.90;99.90;;;;;;4896501;28;20516;-54
2024/01/15 01:20:08;;;;;;;6.90;1.77;;;0.90;99.90;;;;;;4931292;28;20026;-51
2024/01/15 01:22:34;;;;;;;8.43;1.95;;;0.90;99.90;;;;;;4897656;28;20561;-51
2024/01/15 01:25:00;;;;;;;7.93;2.05;;;0.90;99.90;;;;;;4920179;28;20035;-59
2024/01/15 01:27:25;;;;;;;5.68;1.30;;;0.80;99.90;;;;;;4902988;28;20027;-51
2024/01/15 01:29:51;;;;;;;10.93;2.95;;;0.80;99.90;;;;;;4900332;28;21650;-50
2024/01/15 01:32:17;;;;;;;9.32;2.22;;;0.80;99.90;;;;;;4925937;28;20026;-58
2024/01/15 01:34:43;;;;;;;4.85;1.67;;;0.80;99.90;;;;;;4895040;28;20534;-52
2024/01/15 01:37:09;;;;;;;11.35;1.70;;;0.80;99.90;;;;;;4896725;28;20018;-55
2024/01/15 01:39:35;;;;;;;9.82;2.03;;;0.80;99.90;;;;;;4955320;28;20023;-51
2024/01/15 01:42:00;;;;;;;4.38;1.52;;;0.70;99.90;;;;;;4906668;28;20022;-52
2024/01/15 01:44:26;;;;;;;19.65;3.08;;;0.80;99.90;;;;;;4930685;28;20129;-49
2024/01/15 01:46:52;;;;;;;7.78;1.88;;;0.80;99.90;;;;;;4889574;28;20392;-52
2024/01/15 01:49:18;;;;;;;11.88;2.13;;;0.80;99.90;;;;;;4889674;28;22533;-57
2024/01/15 01:51:44;;;;;;;5.78;1.55;;;0.80;99.90;;;;;;4939918;28;20030;-53
2024/01/15 01:54:13;;;;;;;8.88;1.77;;;0.80;99.90;;;;;;4879914;28;20037;-51
2024/01/15 01:56:40;;;;;;;9.55;2.00;;;0.80;99.90;;;;;;4901589;28;20034;-54
2024/01/15 01:59:07;;;;;;;10.02;1.90;;;0.80;99.90;;;;;;4919693;28;20468;-53
2024/01/15 02:01:33;;;;;;;7.63;1.95;;;0.90;99.90;;;;;;4874957;28;20122;-53
2024/01/15 02:04:00;;;;;;;6.30;1.90;;;0.90;99.90;;;;;;4917430;28;20470;-59
2024/01/15 02:06:25;;;;;;;5.47;1.25;;;0.90;99.90;;;;;;4887847;28;20509;-51
2024/01/15 02:08:51;;;;;;;11.95;1.92;;;0.90;99.90;;;;;;4886008;28;21088;-53
2024/01/15 02:11:17;;;;;;;6.10;1.15;;;0.90;99.90;;;;;;4925981;28;20042;-56
2024/01/15 02:13:43;;;;;;;6.63;1.33;;;1.00;99.90;;;;;;4878997;28;20026;-51
2024/01/15 02:16:08;;;;;;;5.53;1.05;;;1.00;99.90;;;;;;4883747;28;20818;-60
2024/01/15 02:18:44;;;;;;;7.00;1.88;;;1.00;99.90;;;;;;4922838;28;20022;-54
2024/01/15 02:21:10;;;;;;;13.05;1.30;;;1.00;99.90;;;;;;4881453;28;20118;-54
2024/01/15 02:23:37;;;;;;;7.53;1.60;;;1.10;99.90;;;;;;4895138;28;20105;-59
2024/01/15 02:26:04;;;;;;;8.77;1.42;;;1.10;99.90;;;;;;4909843;28;20475;-51
2024/01/15 02:28:29;;;;;;;4.32;1.45;;;1.10;99.90;;;;;;4873724;28;21605;-52
2024/01/15 02:30:55;;;;;;;2.30;0.65;;;1.10;99.90;;;;;;4916940;28;20048;-53
2024/01/15 02:33:21;;;;;;;7.78;1.42;;;1.10;99.90;;;;;;4871513;28;20033;-60
2024/01/15 02:35:46;;;;;;;7.32;1.13;;;1.10;99.90;;;;;;4878433;28;20058;-50
2024/01/15 02:38:12;;;;;;;6.40;1.67;;;1.00;99.90;;;;;;4913973;28;20110;-54
2024/01/15 02:40:38;;;;;;;5.85;1.38;;;1.00;99.90;;;;;;4863995;28;20026;-54
2024/01/15 02:43:04;;;;;;;5.20;1.70;;;1.00;99.90;;;;;;4895382;28;20699;-60
2024/01/15 02:45:30;;;;;;;10.00;1.10;;;1.00;99.90;;;;;;4908364;28;20038;-52
2024/01/15 02:47:55;;;;;;;8.25;1.77;;;1.00;99.90;;;;;;4874624;28;21283;-49
2024/01/15 02:50:21;;;;;;;7.90;1.20;;;1.10;99.90;;;;;;4915128;28;20033;-50
2024/01/15 02:52:46;;;;;;;5.88;1.13;;;1.10;99.90;;;;;;4865911;28;20092;-54
2024/01/15 02:55:12;;;;;;;9.23;1.38;;;1.10;99.90;;;;;;4861137;28;20045;-53
2024/01/15 02:57:38;;;;;;;6.28;1.17;;;1.10;99.90;;;;;;4929334;28;20031;-51
2024/01/15 03:00:04;;;;;;;6.45;2.03;;;1.10;99.90;;;;;;4870465;28;20097;-51
2024/01/15 03:02:31;;;;;;;9.93;1.67;;;1.10;99.90;;;;;;4912917;28;20030;-53
2024/01/15 03:04:57;;;;;;;4.97;1.15;;;1.10;99.90;;;;;;4869165;28;20073;-53
2024/01/15 03:07:22;;;;;;;4.35;1.75;;;1.10;99.90;;;;;;4865587;28;21454;-52
2024/01/15 03:09:48;;;;;;;9.85;2.00;;;1.10;99.90;;;;;;4925384;28;20034;-52
2024/01/15 03:12:14;;;;;;;4.30;1.70;;;1.10;99.90;;;;;;4865541;28;20550;-51
2024/01/15 03:14:39;;;;;;;10.48;2.25;;;1.00;99.90;;;;;;4826145;28;20522;-59
2024/01/15 03:17:05;;;;;;;11.20;1.85;;;1.00;99.90;;;;;;4922953;28;20532;-54
2024/01/15 03:19:30;;;;;;;7.57;1.55;;;1.00;99.90;;;;;;4908057;28;20026;-54
2024/01/15 03:21:56;;;;;;;5.95;1.75;;;1.00;99.90;;;;;;4923131;28;20086;-57
2024/01/15 03:24:22;;;;;;;8.15;2.30;;;0.90;99.90;;;;;;4940073;28;20033;-52
2024/01/15 03:26:48;;;;;;;10.60;1.73;;;0.90;99.90;;;;;;4904306;28;20073;-50
2024/01/15 03:29:13;;;;;;;7.35;1.90;;;0.90;99.90;;;;;;4934259;28;20109;-56
2024/01/15 03:31:39;;;;;;;8.90;1.63;;;0.90;99.90;;;;;;4918114;28;20077;-56
2024/01/15 03:34:04;;;;;;;13.80;2.20;;;0.90;99.90;;;;;;4902150;28;20029;-55
2024/01/15 03:36:30;;;;;;;8.10;1.88;;;1.00;99.90;;;;;;4915152;28;20125;-54
2024/01/15 03:38:55;;;;;;;13.95;2.25;;;0.90;99.90;;;;;;4886895;28;20030;-51
2024/01/15 03:41:21;;;;;;;10.07;1.80;;;0.90;99.90;;;;;;4967910;28;20034;-53
2024/01/15 03:43:47;;;;;;;8.82;2.53;;;1.00;99.90;;;;;;4923807;28;20447;-52
2024/01/15 03:46:12;;;;;;;9.82;2.05;;;0.90;99.90;;;;;;4900818;28;20119;-53
2024/01/15 03:48:38;;;;;;;14.50;2.63;;;1.00;99.90;;;;;;4902486;28;20034;-51
2024/01/15 03:51:04;;;;;;;16.13;2.22;;;1.00;99.90;;;;;;4909966;28;20093;-52
2024/01/15 03:53:29;;;;;;;11.02;2.40;;;1.00;99.90;;;;;;4943439;28;20081;-55
2024/01/15 03:55:55;;;;;;;9.75;2.50;;;1.00;99.90;;;;;;4902908;28;20034;-54
2024/01/15 03:58:20;;;;;;;9.18;2.03;;;1.00;99.90;;;;;;4910043;28;21687;-53
2024/01/15 04:00:46;;;;;;;10.65;2.78;;;1.00;99.90;;;;;;4911168;28;20034;-53
2024/01/15 04:03:12;;;;;;;12.88;2.40;;;1.10;99.90;;;;;;4912872;28;20449;-51
2024/01/15 04:05:38;;;;;;;11.65;2.22;;;1.10;99.90;;;;;;4910915;28;20042;-60
2024/01/15 04:08:04;;;;;;;11.50;3.05;;;1.10;99.90;;;;;;4927875;28;20034;-57
2024/01/15 04:10:30;;;;;;;12.45;2.45;;;1.10;99.90;;;;;;4920408;28;20041;-52
2024/01/15 04:12:56;;;;;;;9.25;2.88;;;1.10;99.90;;;;;;4904531;28;20030;-54
2024/01/15 04:15:22;;;;;;;7.22;1.42;;;1.10;99.90;;;;;;4872859;28;20133;-56
2024/01/15 04:17:47;;;;;;;13.70;2.70;;;1.10;99.90;;;;;;4887048;28;20539;-54
2024/01/15 04:20:13;;;;;;;11.55;2.13;;;1.10;99.90;;;;;;4932705;28;20034;-53
2024/01/15 04:22:39;;;;;;;9.45;2.35;;;1.10;99.90;;;;;;4911256;28;20488;-54
2024/01/15 04:25:05;;;;;;;11.52;2.55;;;1.10;99.90;;;;;;4890022;28;20100;-51
2024/01/15 04:27:30;;;;;;;6.85;2.08;;;1.10;99.90;;;;;;4898244;28;20137;-55
2024/01/15 04:29:56;;;;;;;17.45;3.38;;;1.20;99.90;;;;;;4899511;28;21457;-54
2024/01/15 04:32:22;;;;;;;12.50;2.42;;;1.20;99.90;;;;;;4957851;28;20046;-54
2024/01/15 04:34:47;;;;;;;11.60;2.65;;;1.20;99.90;;;;;;4916452;28;20069;-52
2024/01/15 04:37:13;;;;;;;18.60;2.85;;;1.20;99.90;;;;;;4871731;28;20022;-50
2024/01/15 04:39:39;;;;;;;10.70;2.42;;;1.20;99.90;;;;;;4892595;28;20062;-50
2024/01/15 04:42:05;;;;;;;8.32;2.35;;;1.20;99.90;;;;;;4898671;28;20177;-53
2024/01/15 04:44:30;;;;;;;7.85;2.55;;;1.20;99.90;;;;;;4941995;28;20031;-52
2024/01/15 04:46:56;;;;;;;10.32;2.67;;;1.20;99.90;;;;;;4909593;28;20034;-51
2024/01/15 04:49:22;;;;;;;14.50;2.47;;;1.20;99.90;;;;;;4885058;28;20030;-51
2024/01/15 04:51:48;;;;;;;16.17;2.72;;;1.20;99.90;;;;;;4882188;28;20034;-52
2024/01/15 04:54:17;;;;;;;12.75;2.65;;;1.20;99.90;;;;;;4892494;28;20633;-51
2024/01/15 04:56:43;;;;;;;10.75;2.83;;;1.20;99.90;;;;;;4938758;28;20436;-53
2024/01/15 04:59:08;;;;;;;20.08;3.10;;;1.20;99.90;;;;;;4948203;28;20412;-53
2024/01/15 05:01:34;;;;;;;16.65;3.17;;;1.20;99.90;;;;;;4909346;28;20535;-51
2024/01/15 05:04:00;;;;;;;9.95;2.38;;;1.20;99.90;;;;;;4882842;28;21100;-51
2024/01/15 05:06:25;;;;;;;13.95;2.30;;;1.20;99.90;;;;;;4957129;28;20038;-52
2024/01/15 05:08:51;;;;;;;15.38;3.42;;;1.20;99.90;;;;;;4957137;28;20038;-52
2024/01/15 05:11:17;;;;;;;15.00;2.80;;;1.20;99.90;;;;;;4952606;28;21078;-55
2024/01/15 05:13:42;;;;;;;11.18;3.25;;;1.20;99.90;;;;;;4974968;28;20038;-52
2024/01/15 05:16:08;;;;;;;13.52;2.40;;;1.20;99.90;;;;;;4949424;28;21721;-58
2024/01/15 05:18:34;;;;;;;15.63;3.25;;;1.20;99.90;;;;;;4943524;28;20116;-50
2024/01/15 05:20:59;;;;;;;13.90;2.85;;;1.20;99.90;;;;;;4952678;28;20109;-54
2024/01/15 05:23:25;;;;;;;19.85;3.08;;;1.20;99.90;;;;;;4942881;28;20056;-53
2024/01/15 05:25:50;;;;;;;13.00;3.00;;;1.20;99.90;;;;;;4974647;28;20042;-52
2024/01/15 05:28:16;;;;;;;14.52;3.08;;;1.20;99.90;;;;;;4943905;28;20034;-54
2024/01/15 05:30:42;;;;;;;10.73;3.65;;;1.20;99.90;;;;;;4943115;28;20053;-52
2024/01/15 05:33:07;;;;;;;13.10;3.35;;;1.20;99.90;;;;;;4953320;28;20038;-54
2024/01/15 05:35:34;;;;;;;14.07;3.83;;;1.30;99.90;;;;;;4935149;28;20027;-53
2024/01/15 05:38:00;;;;;;;15.88;3.42;;;1.30;99.90;;;;;;4951383;28;20617;-60
2024/01/15 05:40:25;;;;;;;14.85;2.83;;;1.40;99.90;;;;;;4958558;28;20130;-52
2024/01/15 05:42:51;;;;;;;12.63;2.58;;;1.30;99.90;;;;;;4936734;28;21415;-54
2024/01/15 05:45:17;;;;;;;13.00;2.78;;;1.40;99.90;;;;;;4953595;28;20069;-53
2024/01/15 05:47:43;;;;;;;23.40;2.97;;;1.30;99.90;;;;;;4929356;28;20117;-50
2024/01/15 05:50:09;;;;;;;15.75;3.67;;;1.40;99.90;;;;;;4934871;28;20041;-52
2024/01/15 05:52:35;;;;;;;13.45;3.22;;;1.40;99.90;;;;;;4959026;28;20030;-54
2024/01/15 05:55:00;;;;;;;9.82;2.40;;;1.40;99.90;;;;;;4940519;28;20035;-53
2024/01/15 05:57:26;;;;;;;15.93;3.50;;;1.40;99.90;;;;;;4948090;28;20061;-54
2024/01/15 05:59:52;;;;;;;14.40;3.08;;;1.40;99.90;;;;;;4931168;28;20125;-54
2024/01/15 06:02:19;;;;;;;9.82;2.20;;;1.40;99.90;;;;;;4928921;28;21504;-59
2024/01/15 06:04:44;;;;;;;16.67;3.28;;;1.40;99.90;;;;;;4964968;28;20081;-52
2024/01/15 06:07:10;;;;;;;8.18;2.42;;;1.40;99.90;;;;;;4931502;28;20042;-54
2024/01/15 06:09:36;;;;;;;13.73;2.75;;;1.40;99.90;;;;;;4928059;28;20050;-53
2024/01/15 06:12:01;;;;;;;7.75;2.25;;;1.30;99.90;;;;;;4947351;28;20035;-52
2024/01/15 06:14:27;;;;;;;13.90;3.42;;;1.30;99.90;;;;;;4955726;23;20046;-63
2024/01/15 06:16:52;;;;;;;11.88;2.75;;;1.30;99.90;;;;;;4963389;28;20240;-60
2024/01/15 06:19:18;;;;;;;15.93;3.25;;;1.20;99.90;;;;;;4938990;28;20574;-63
2024/01/15 06:21:43;;;;;;;18.20;2.92;;;1.20;99.90;;;;;;4942708;28;20105;-63
2024/01/15 06:24:10;;;;;;;12.00;3.25;;;1.20;99.90;;;;;;4965121;28;20111;-63
2024/01/15 06:26:35;;;;;;;19.50;2.63;;;1.20;99.90;;;;;;4934228;28;20026;-62
2024/01/15 06:29:02;;;;;;;15.82;2.55;;;1.20;99.90;;;;;;4960011;28;20041;-63
2024/01/15 06:31:28;;;;;;;8.68;2.28;;;1.20;99.90;;;;;;4965753;28;20036;-56
2024/01/15 06:33:55;;;;;;;10.40;2.38;;;1.20;99.90;;;;;;4925060;28;21554;-62
2024/01/15 06:36:20;;;;;;;6.15;1.73;;;1.20;99.90;;;;;;4962469;28;20034;-64
2024/01/15 06:38:46;;;;;;;7.18;1.77;;;1.20;99.90;;;;;;4942126;28;20033;-62
2024/01/15 06:41:11;;;;;;;6.15;1.63;;;1.20;99.90;;;;;;4939296;28;20367;-60
2024/01/15 06:43:37;;;;;;;4.97;1.67;;;1.10;99.90;;;;;;4977720;28;20068;-60
2024/01/15 06:46:02;;;;;;;10.55;1.80;;;1.20;99.90;;;;;;4941118;28;20030;-62
2024/01/15 06:48:28;;;;;;;7.80;1.80;;;1.20;99.90;;;;;;4959503;28;20029;-59
2024/01/15 06:50:53;;;;;;;3.85;0.65;;;1.20;99.90;;;;;;4938863;28;20034;-60
2024/01/15 06:53:19;;;;;;;6.03;1.13;;;1.20;99.90;;;;;;4935733;28;21121;-59
2024/01/15 06:55:45;;;;;;;2.72;0.85;;;1.20;99.90;;;;;;4974511;28;20026;-61
2024/01/15 06:58:10;;;;;;;5.53;1.35;;;1.20;99.90;;;;;;4939869;28;20041;-59
2024/01/15 07:00:36;;;;;;;4.05;1.05;;;1.30;99.90;;;;;;4933950;28;20032;-62
2024/01/15 07:03:02;;;;;;;4.15;1.35;;;1.20;99.90;;;;;;4959521;28;20700;-62
2024/01/15 07:05:30;;;;;;;7.03;1.40;;;1.20;99.90;;;;;;4932904;28;20033;-62
2024/01/15 07:07:55;;;;;;;4.63;1.00;;;1.20;99.90;;;;;;4972644;28;20565;-62
2024/01/15 07:10:21;;;;;;;7.50;1.38;;;1.10;99.90;;;;;;4925490;28;20038;-63
2024/01/15 07:12:46;;;;;;;6.47;1.88;;;1.20;99.90;;;;;;4933865;28;20057;-58
2024/01/15 07:15:12;;;;;;;3.33;0.90;;;1.20;99.90;;;;;;4956040;28;20084;-58
2024/01/15 07:17:39;;;;;;;7.78;1.27;;;1.20;99.90;;;;;;4929215;28;20029;-60
2024/01/15 07:20:07;;;;;;;4.97;1.20;;;1.10;99.90;;;;;;4938478;28;20021;-63
2024/01/15 07:22:34;;;;;;;7.13;1.15;;;1.20;99.90;;;;;;4969301;28;20022;-60
2024/01/15 07:24:59;;;;;;;3.95;0.95;;;1.20;99.90;;;;;;4928433;28;20033;-63
2024/01/15 07:27:25;;;;;;;6.10;1.35;;;1.20;99.90;;;;;;4951592;28;20105;-62
2024/01/15 07:29:50;;;;;;;5.90;1.02;;;1.20;99.90;;;;;;4928228;28;20410;-63
2024/01/15 07:32:16;;;;;;;4.05;1.63;;;1.20;99.90;;;;;;4924758;28;20030;-64
2024/01/15 07:34:41;;;;;;;2.92;0.90;;;1.20;99.90;;;;;;4970872;28;20022;-59
2024/01/15 07:37:07;;;;;;;4.00;1.02;;;1.20;99.90;;;;;;4927557;28;20033;-62
2024/01/15 07:39:34;;;;;;;5.60;1.10;;;1.20;99.90;;;;;;4931777;28;20042;-63
2024/01/15 07:42:00;;;;;;;6.38;0.95;;;1.20;99.90;;;;;;4936544;28;20552;-62
2024/01/15 07:44:26;;;;;;;4.88;1.13;;;1.20;99.90;;;;;;4907088;28;21576;-62
2024/01/15 07:46:52;;;;;;;4.57;1.20;;;1.20;99.90;;;;;;4955064;28;20125;-62
2024/01/15 07:49:17;;;;;;;5.82;1.80;;;1.20;99.90;;;;;;4921627;28;20129;-63
2024/01/15 07:51:46;;;;;;;9.43;1.88;;;1.20;99.90;;;;;;4914624;28;20040;-62
2024/01/15 07:54:11;;;;;;;4.63;0.85;;;1.20;99.90;;;;;;4937011;28;20025;-62
2024/01/15 07:56:57;;;;;;;2.53;0.80;;;1.20;99.90;;;;;;4919146;28;20127;-59
2024/01/15 07:59:23;;;;;;;4.43;0.82;;;1.20;99.90;;;;;;4914725;28;21294;-62
2024/01/15 08:01:49;;;;;;;7.10;1.13;;;1.20;99.90;;;;;;4965257;28;20491;-62
2024/01/15 08:04:14;;;;;;;10.18;1.33;;;1.20;99.90;;;;;;4914042;28;20117;-62
2024/01/15 08:06:40;;;;;;;3.63;1.17;;;1.20;99.90;;;;;;4913144;28;20029;-63
2024/01/15 08:09:05;;;;;;;5.57;1.00;;;1.20;99.90;;;;;;4942920;28;20030;-62
2024/01/15 08:11:31;;;;;;;7.63;0.90;;;1.20;99.90;;;;;;4915663;28;20108;-62
2024/01/15 08:13:57;;;;;;;7.07;1.13;;;1.20;99.90;;;;;;4960571;28;20042;-60
2024/01/15 08:16:25;;;;;;;4.18;1.40;;;1.20;99.90;;;;;;4906945;28;20069;-62
2024/01/15 08:18:50;;;;;;;5.10;1.30;;;1.20;99.90;;;;;;4911486;28;20522;-62
2024/01/15 08:21:16;;;;;;;5.18;0.98;;;1.20;99.90;;;;;;4927731;28;20048;-62
2024/01/15 08:23:41;;;;;;;4.60;0.80;;;1.20;99.90;;;;;;4888494;28;20026;-62
2024/01/15 08:26:08;;;;;;;6.97;1.35;;;1.30;99.90;;;;;;4929496;28;20490;-63
2024/01/15 08:28:34;;;;;;;7.78;1.27;;;1.20;99.90;;;;;;4957654;28;20030;-61
2024/01/15 08:31:00;;;;;;;1.83;1.00;;;1.20;99.90;;;;;;4911214;28;20494;-61
2024/01/15 08:33:25;;;;;;;3.33;1.17;;;1.20;99.90;;;;;;4946994;28;20026;-61
2024/01/15 08:35:51;;;;;;;5.95;1.52;;;1.30;99.90;;;;;;4912138;28;20019;-61
2024/01/15 08:38:17;;;;;;;7.38;1.13;;;1.30;99.90;;;;;;4906852;28;20191;-61
2024/01/15 08:40:43;;;;;;;6.32;1.80;;;1.30;99.90;;;;;;4961008;28;20033;-61
2024/01/15 08:43:08;;;;;;;3.92;0.85;;;1.30;99.90;;;;;;4915503;28;20415;-60
2024/01/15 08:45:34;;;;;;;7.85;1.55;;;1.40;99.90;;;;;;4931001;28;20030;-63
2024/01/15 08:48:00;;;;;;;7.75;1.92;;;1.40;99.90;;;;;;4925875;28;20521;-61
2024/01/15 08:50:26;;;;;;;5.20;1.63;;;1.50;99.90;;;;;;4893076;28;20331;-62
2024/01/15 08:52:52;;;;;;;5.15;1.85;;;1.40;99.90;;;;;;4975824;28;20036;-62
2024/01/15 08:55:17;;;;;;;4.38;1.27;;;1.40;99.90;;;;;;4907435;28;20212;-63
2024/01/15 08:57:43;;;;;;;6.45;1.35;;;1.40;99.90;;;;;;4906379;28;20457;-61
2024/01/15 09:00:09;;;;;;;3.30;1.40;;;1.40;99.90;;;;;;4933398;28;20037;-61
2024/01/15 09:02:35;;;;;;;4.50;0.88;;;1.40;99.90;;;;;;4900046;28;20084;-60
2024/01/15 09:05:01;;;;;;;6.47;1.15;;;1.40;99.90;;;;;;4932424;28;20032;-64
2024/01/15 09:07:27;;;;;;;9.48;1.42;;;1.30;99.90;;;;;;4916632;28;20083;-61
2024/01/15 09:09:53;;;;;;;5.25;1.58;;;1.30;99.90;;;;;;4901266;28;21659;-62
2024/01/15 09:12:20;;;;;;;8.95;1.85;;;1.30;99.90;;;;;;4928365;28;20460;-62
2024/01/15 09:14:46;;;;;;;9.55;1.75;;;1.20;99.90;;;;;;4909068;28;20482;-62
2024/01/15 09:17:12;;;;;;;7.38;1.52;;;1.20;99.90;;;;;;4900547;28;20026;-61
2024/01/15 09:19:39;;;;;;;8.82;1.60;;;1.30;99.90;;;;;;4940438;28;20038;-61
2024/01/15 09:22:05;;;;;;;3.92;1.25;;;1.30;99.90;;;;;;4895646;28;20050;-59
2024/01/15 09:24:30;;;;;;;5.65;1.27;;;1.20;99.90;;;;;;4933772;28;20113;-61
2024/01/15 09:26:56;;;;;;;5.13;1.38;;;1.20;99.90;;;;;;4894190;28;20038;-63
2024/01/15 09:29:23;;;;;;;10.45;1.65;;;1.20;99.90;;;;;;4894825;28;21560;-62
2024/01/15 09:31:50;;;;;;;8.93;2.08;;;1.20;99.90;;;;;;4942102;28;20247;-62
2024/01/15 09:34:16;;;;;;;4.15;1.17;;;1.20;99.90;;;;;;4896736;28;20121;-61
2024/01/15 09:36:42;;;;;;;9.02;2.13;;;1.20;99.90;;;;;;4894458;28;20028;-64
2024/01/15 09:39:08;;;;;;;10.60;1.58;;;1.20;99.90;;;;;;4929635;28;20095;-63
2024/01/15 09:41:37;;;;;;;5.95;1.73;;;1.20;99.90;;;;;;4889432;28;20394;-61
2024/01/15 09:44:04;;;;;;;10.80;1.70;;;1.20;99.90;;;;;;4913465;28;20096;-64
2024/01/15 09:46:31;;;;;;;4.60;1.38;;;1.20;99.90;;;;;;4930335;28;20030;-61
2024/01/15 09:48:57;;;;;;;3.00;1.23;;;1.20;99.90;;;;;;4904278;28;21584;-62
2024/01/15 09:51:24;;;;;;;7.05;1.73;;;1.20;99.90;;;;;;4932786;28;20021;-63
2024/01/15 09:53:50;;;;;;;8.20;1.70;;;1.20;99.90;;;;;;4887803;28;20111;-61
2024/01/15 09:56:16;;;;;;;3.40;1.50;;;1.20;99.90;;;;;;4891375;28;20326;-60
2024/01/15 09:58:42;;;;;;;7.18;1.42;;;1.10;99.90;;;;;;4949492;28;20038;-61
2024/01/15 10:01:08;;;;;;;8.82;1.45;;;1.10;99.90;;;;;;4887681;28;20029;-62
2024/01/15 10:03:34;;;;;;;6.90;1.70;;;1.10;99.90;;;;;;4970004;28;20025;-64
2024/01/15 10:06:02;;;;;;;6.30;1.30;;;1.00;99.90;;;;;;4897753;28;20060;-62
2024/01/15 10:08:28;;;;;;;11.18;1.80;;;1.00;99.90;;;;;;4953235;28;20029;-61
2024/01/15 10:10:54;;;;;;;10.25;1.65;;;1.00;99.90;;;;;;4945970;28;20108;-62
2024/01/15 10:13:20;;;;;;;8.70;1.50;;;1.00;99.90;;;;;;4941714;28;20044;-60
2024/01/15 10:15:49;;;;;;;6.60;1.95;;;1.10;99.90;;;;;;4939509;28;20037;-62
2024/01/15 10:18:15;;;;;;;5.43;1.58;;;1.10;99.90;;;;;;4987026;28;20053;-62
2024/01/15 10:20:40;;;;;;;14.32;2.20;;;1.10;99.90;;;;;;4951939;28;20137;-61
2024/01/15 10:23:06;;;;;;;9.60;1.60;;;1.10;99.90;;;;;;4927979;28;20096;-62
2024/01/15 10:25:32;;;;;;;8.23;1.45;;;1.20;99.90;;;;;;4957238;28;20034;-61
2024/01/15 10:28:02;;;;;;;11.25;1.70;;;1.20;99.90;;;;;;4936050;28;22242;-62
2024/01/15 10:30:27;;;;;;;7.30;2.15;;;1.20;99.90;;;;;;4974294;28;20026;-62
2024/01/15 10:33:01;;;;;;;5.97;1.67;;;1.20;99.90;;;;;;4958379;28;20030;-61
2024/01/15 10:35:29;;;;;;;7.43;1.73;;;1.20;99.90;;;;;;4949826;28;20040;-61
2024/01/15 10:37:54;;;;;;;5.40;1.65;;;1.20;99.90;;;;;;4955856;28;20046;-61
2024/01/15 10:40:20;;;;;;;8.05;2.13;;;1.20;99.90;;;;;;4932519;28;20939;-61
2024/01/15 10:42:47;;;;;;;7.07;2.20;;;1.20;99.90;;;;;;4929790;28;20018;-62
2024/01/15 10:45:16;;;;;;;13.15;1.95;;;1.20;99.90;;;;;;4986654;28;20018;-61
2024/01/15 10:47:42;;;;;;;5.82;1.50;;;1.20;99.90;;;;;;4941240;28;20088;-62
2024/01/15 10:50:09;;;;;;;10.95;2.03;;;1.20;99.90;;;;;;4934108;28;20087;-62
2024/01/15 10:52:45;;;;;;;7.78;1.35;;;1.20;99.90;;;;;;4931926;28;20048;-61
2024/01/15 10:55:11;;;;;;;8.73;1.63;;;1.20;99.90;;;;;;4928899;28;20022;-61
2024/01/15 10:57:38;;;;;;;6.40;1.17;;;1.20;99.90;;;;;;4952949;28;20392;-63
2024/01/15 11:00:08;;;;;;;8.35;1.83;;;1.30;99.90;;;;;;4959760;28;20034;-63
2024/01/15 11:02:36;;;;;;;7.47;1.70;;;1.20;99.90;;;;;;4939670;28;20037;-62
2024/01/15 11:05:02;;;;;;;5.43;1.52;;;1.30;99.90;;;;;;4939528;28;20443;-63
2024/01/15 11:07:30;;;;;;;4.25;1.58;;;1.30;99.90;;;;;;4928595;28;20036;-63
2024/01/15 11:09:57;;;;;;;10.02;2.55;;;1.30;99.90;;;;;;4924191;28;20989;-62
2024/01/15 11:12:23;;;;;;;3.85;1.20;;;1.40;99.90;;;;;;4982670;28;20029;-62
2024/01/15 11:14:49;;;;;;;8.95;2.08;;;1.40;99.90;;;;;;4955345;28;20449;-62
2024/01/15 11:17:16;;;;;;;6.68;1.75;;;1.40;99.90;;;;;;4907313;28;20068;-61
2024/01/15 11:19:42;;;;;;;4.43;1.67;;;1.50;99.90;;;;;;4961502;28;20026;-61
2024/01/15 11:22:29;;;;;;;5.70;1.85;;;1.50;99.90;;;;;;4900244;28;20104;-59
2024/01/15 11:24:54;;;;;;;4.10;1.38;;;1.50;99.90;;;;;;4928622;28;22352;-61
2024/01/15 11:27:47;;;;;;;7.68;1.40;;;1.50;99.90;;;;;;4979321;28;21263;-61
2024/01/15 11:30:14;;;;;;;4.00;1.35;;;1.60;99.90;;;;;;4962946;28;20025;-61
2024/01/15 11:32:43;;;;;;;6.63;1.98;;;1.60;99.90;;;;;;4938472;28;20038;-61
2024/01/15 11:35:13;;;;;;;5.57;1.70;;;1.60;99.90;;;;;;4911089;28;20061;-61
2024/01/15 11:37:50;;;;;;;4.60;1.25;;;1.60;99.90;;;;;;4930665;28;20030;-61
2024/01/15 11:40:38;;;;;;;6.43;1.20;;;1.60;99.90;;;;;;4947795;28;20026;-61
2024/01/15 11:43:06;;;;;;;6.80;1.20;;;1.50;99.90;;;;;;4933223;28;20026;-60
2024/01/15 11:45:33;;;;;;;5.53;1.42;;;1.40;99.90;;;;;;4973464;28;20030;-58
2024/01/15 11:48:16;;;;;;;4.13;0.80;;;1.40;99.90;;;;;;4939143;28;20049;-63
2024/01/15 11:50:43;;;;;;;4.10;0.88;;;1.30;99.90;;;;;;4948544;28;20061;-61
2024/01/15 11:53:21;;;;;;;3.90;1.00;;;1.40;99.90;;;;;;4910187;28;20052;-61
2024/01/15 11:55:48;;;;;;;5.20;1.08;;;1.30;99.90;;;;;;4921296;28;20138;-62
2024/01/15 11:58:14;;;;;;;6.50;1.42;;;1.40;99.90;;;;;;4957725;28;20117;-61
2024/01/15 12:00:42;;;;;;;2.15;0.80;;;1.30;99.90;;;;;;4942463;28;20202;-63
2024/01/15 12:03:09;;;;;;;0.77;0.60;;;1.30;99.90;;;;;;4945195;28;20045;-64
2024/01/15 12:05:37;;;;;;;2.22;0.95;;;1.30;99.90;;;;;;4931360;28;20096;-62
2024/01/15 12:08:03;;;;;;;1.90;0.93;;;1.30;99.90;;;;;;4911693;28;20042;-61
2024/01/15 12:10:29;;;;;;;4.70;0.75;;;1.40;99.90;;;;;;4940237;28;20087;-60
2024/01/15 12:13:06;;;;;;;2.05;0.80;;;1.40;99.90;;;;;;4932389;28;21665;-62
2024/01/15 12:15:54;;;;;;;0.98;0.70;;;1.40;99.90;;;;;;4937161;22;20054;-85
2024/01/15 12:18:19;;;;;;;3.78;1.13;;;1.40;99.90;;;;;;4939706;28;22038;-87
2024/01/15 12:20:48;;;;;;;2.75;0.68;;;1.40;99.90;;;;;;4971420;28;20023;-87
2024/01/15 12:23:15;;;;;;;2.35;0.70;;;1.40;99.90;;;;;;4923609;28;20398;-86
2024/01/15 12:25:41;;;;;;;3.40;0.47;;;1.40;99.90;;;;;;4924857;28;21518;-86
2024/01/15 12:28:07;;;;;;;1.20;0.70;;;1.40;99.90;;;;;;4925875;28;20023;-86
2024/01/15 12:30:34;;;;;;;0.95;0.60;;;1.30;99.90;;;;;;4915854;28;20087;-86
2024/01/15 12:33:13;;;;;;;2.78;0.63;;;1.30;99.90;;;;;;4954992;28;20567;-86
2024/01/15 12:35:38;;;;;;;0.70;0.30;;;1.30;99.90;;;;;;4959638;28;20035;-87
2024/01/15 12:38:04;;;;;;;1.98;0.38;;;1.30;99.90;;;;;;4921500;28;20087;-86
2024/01/15 12:40:32;;;;;;;1.92;0.63;;;1.20;99.90;;;;;;4930614;28;20030;-86
2024/01/15 12:42:57;;;;;;;3.33;0.65;;;1.20;99.90;;;;;;4921175;28;20035;-86
2024/01/15 12:45:24;;;;;;;0.98;0.60;;;1.20;99.90;;;;;;4911885;28;21060;-87
2024/01/15 12:47:51;;;;;;;1.30;0.85;;;1.20;99.90;;;;;;4959169;28;20035;-86
2024/01/15 12:50:16;;;;;;;3.33;0.60;;;1.10;99.90;;;;;;4919788;28;20019;-86
2024/01/15 12:52:42;;;;;;;2.28;0.50;;;1.20;99.90;;;;;;4901813;28;20037;-86